Time;durP1;ratioP1;P1;durP2;ratioP2;P2;SDS_P1;SDS_P2;PMS_P1;PMS_P2;Temp;Humidity;BMP_temperature;BMP_pressure;BME280_temperature;BME280_humidity;BME280_pressure;Samples;Min_cycle;Max_cycle;Signal;HPM_P1;HPM_P2
2021/12/22 00:00:19;;;;;;;;;;;-3.70;99.90;;;;;;5049927;28;20045;-82
2021/12/22 00:02:49;;;;;;;48.42;19.50;;;-3.80;99.90;;;;;;5052827;28;19924;-82
2021/12/22 00:05:19;;;;;;;42.42;20.00;;;-3.90;99.90;;;;;;5053561;28;20049;-82
2021/12/22 00:07:45;;;;;;;45.58;21.80;;;-4.00;99.90;;;;;;5052013;28;20049;-82
2021/12/22 00:10:11;;;;;;;45.17;19.52;;;-4.00;99.90;;;;;;5052207;28;20049;-82
2021/12/22 00:12:37;;;;;;;43.03;20.00;;;-4.10;99.90;;;;;;5053498;28;20589;-81
2021/12/22 00:15:04;;;;;;;40.25;19.23;;;-4.10;99.90;;;;;;5053165;28;20045;-82
2021/12/22 00:17:30;;;;;;;49.80;20.30;;;-4.20;99.90;;;;;;5051850;28;20048;-82
2021/12/22 00:19:56;;;;;;;40.67;19.85;;;-4.30;99.90;;;;;;5052985;28;20140;-82
2021/12/22 00:22:22;;;;;;;43.20;20.88;;;-4.30;99.90;;;;;;5053307;28;20067;-82
2021/12/22 00:24:47;;;;;;;44.80;19.95;;;-4.30;99.90;;;;;;5052496;28;20048;-82
2021/12/22 00:27:15;;;;;;;39.92;21.90;;;-4.30;99.90;;;;;;5051031;28;20045;-82
2021/12/22 00:29:45;;;;;;;43.75;19.75;;;-4.40;99.90;;;;;;5051106;28;20056;-82
2021/12/22 00:32:14;;;;;;;41.35;20.13;;;-4.40;99.90;;;;;;5051328;28;20094;-82
2021/12/22 00:34:47;;;;;;;45.55;19.08;;;-4.50;99.90;;;;;;5050689;28;20053;-82
2021/12/22 00:37:22;;;;;;;39.80;18.75;;;-4.50;99.90;;;;;;5051291;28;20549;-82
2021/12/22 00:39:48;;;;;;;40.90;19.77;;;-4.60;99.90;;;;;;5050664;28;20059;-82
2021/12/22 00:42:14;;;;;;;33.28;18.23;;;-4.70;99.90;;;;;;5051406;28;20091;-82
2021/12/22 00:44:41;;;;;;;;;;;-4.70;99.90;;;;;;5051760;28;20137;-82
2021/12/22 00:47:07;;;;;;;41.75;18.50;;;-4.80;99.90;;;;;;5050136;28;20003;-82
2021/12/22 00:49:34;;;;;;;39.70;20.13;;;-4.90;99.90;;;;;;5051085;28;20045;-83
2021/12/22 00:52:00;;;;;;;46.65;21.13;;;-4.90;99.90;;;;;;5050691;28;20143;-83
2021/12/22 00:54:25;;;;;;;37.35;18.80;;;-4.90;99.90;;;;;;5050563;28;20155;-82
2021/12/22 00:56:51;;;;;;;45.90;22.65;;;-4.80;99.90;;;;;;5049722;28;20128;-82
2021/12/22 00:59:18;;;;;;;39.58;20.27;;;-4.80;99.90;;;;;;5048995;28;20053;-82
2021/12/22 01:01:45;;;;;;;44.75;19.92;;;-4.80;99.90;;;;;;5050496;28;20060;-83
2021/12/22 01:04:11;;;;;;;43.10;20.50;;;-4.70;99.90;;;;;;5050723;28;20059;-82
2021/12/22 01:06:36;;;;;;;40.97;20.77;;;-4.70;99.90;;;;;;5051753;28;20087;-82
2021/12/22 01:09:04;;;;;;;36.15;19.60;;;-4.70;99.90;;;;;;5052283;28;20048;-82
2021/12/22 01:11:30;;;;;;;40.17;18.42;;;-4.60;99.90;;;;;;5050885;28;20051;-81
2021/12/22 01:13:56;;;;;;;38.60;19.48;;;-4.70;99.90;;;;;;5052015;28;20124;-83
2021/12/22 01:16:22;;;;;;;41.55;18.83;;;-4.70;99.90;;;;;;5051170;28;20049;-82
2021/12/22 01:18:48;;;;;;;39.70;20.40;;;-4.70;99.90;;;;;;5053337;28;20052;-82
2021/12/22 01:21:23;;;;;;;50.20;20.95;;;-4.80;99.90;;;;;;5050849;28;20559;-82
2021/12/22 01:24:02;;;;;;;43.90;19.65;;;-4.80;99.90;;;;;;5049648;28;20064;-81
2021/12/22 01:26:29;;;;;;;35.90;18.45;;;-4.80;99.90;;;;;;5051484;28;20056;-82
2021/12/22 01:28:56;;;;;;;39.72;18.30;;;-4.80;99.90;;;;;;5051772;28;20055;-81
2021/12/22 01:31:22;;;;;;;46.35;20.73;;;-4.80;99.90;;;;;;5050722;28;20080;-81
2021/12/22 01:33:47;;;;;;;40.55;19.42;;;-4.80;99.90;;;;;;5048974;28;20091;-82
2021/12/22 01:36:13;;;;;;;49.88;19.48;;;-4.80;99.90;;;;;;5048638;28;20105;-82
2021/12/22 01:38:39;;;;;;;40.95;18.35;;;-4.80;99.90;;;;;;5051231;28;20473;-82
2021/12/22 01:41:04;;;;;;;43.53;18.60;;;-4.90;99.90;;;;;;5045336;28;20876;-81
2021/12/22 01:43:30;;;;;;;38.70;18.23;;;-5.00;99.90;;;;;;5049348;28;20140;-82
2021/12/22 01:49:10;;;;;;;42.83;18.17;;;-5.20;99.90;;;;;;5052793;28;20060;-82
2021/12/22 01:51:54;;;;;;;32.28;16.20;;;-5.30;99.90;;;;;;5051252;28;20288;-81
2021/12/22 01:54:33;;;;;;;34.60;16.73;;;-5.40;99.90;;;;;;5034917;28;20075;-83
2021/12/22 01:57:02;;;;;;;28.48;15.23;;;-5.50;99.90;;;;;;5032962;28;20086;-83
2021/12/22 01:59:28;;;;;;;31.50;15.18;;;-5.60;99.90;;;;;;5048143;28;20080;-83
2021/12/22 02:01:54;;;;;;;38.63;18.13;;;-5.70;99.90;;;;;;5049660;28;20045;-83
2021/12/22 02:04:20;;;;;;;38.00;16.52;;;-5.60;99.90;;;;;;5033013;28;20065;-82
2021/12/22 02:06:47;;;;;;;31.35;15.10;;;-4.60;99.90;;;;;;5033658;28;20441;-83
2021/12/22 02:09:23;;;;;;;34.30;16.58;;;-5.70;99.90;;;;;;5033053;28;20073;-82
2021/12/22 02:11:49;;;;;;;30.75;16.23;;;-5.70;99.90;;;;;;5030823;28;20057;-82
2021/12/22 02:14:14;;;;;;;35.30;15.10;;;-5.70;99.90;;;;;;5032748;28;20060;-83
2021/12/22 02:16:40;;;;;;;36.50;16.55;;;-5.70;99.90;;;;;;5033348;28;20156;-83
2021/12/22 02:19:09;;;;;;;40.83;18.00;;;-5.80;99.90;;;;;;5035205;28;20048;-82
2021/12/22 02:21:45;;;;;;;36.58;17.17;;;-5.80;99.90;;;;;;5034086;28;20528;-83
2021/12/22 02:24:11;;;;;;;46.63;18.02;;;-5.70;99.90;;;;;;5031037;28;20120;-81
2021/12/22 02:26:43;;;;;;;33.15;16.02;;;-5.70;99.90;;;;;;5029509;28;20053;-81
2021/12/22 02:29:19;;;;;;;32.40;17.10;;;-5.70;99.90;;;;;;5029454;28;20547;-81
2021/12/22 02:32:38;;;;;;;34.95;17.17;;;-5.70;99.90;;;;;;5030160;28;20049;-81
2021/12/22 02:34:48;;;;;;;39.83;18.88;;;-5.60;99.90;;;;;;5028283;28;20060;-82
2021/12/22 02:37:17;;;;;;;40.85;17.42;;;-5.60;99.90;;;;;;5029357;28;20049;-82
2021/12/22 02:40:08;;;;;;;33.28;16.40;;;-5.60;99.90;;;;;;5028764;28;20072;-82
2021/12/22 02:42:34;;;;;;;39.83;15.65;;;-5.00;99.90;;;;;;5030359;28;20456;-83
2021/12/22 02:45:12;;;;;;;34.40;16.38;;;-5.40;99.90;;;;;;5032375;28;20099;-82
2021/12/22 02:47:38;;;;;;;38.25;17.00;;;-5.40;99.90;;;;;;5031722;28;20061;-82
2021/12/22 02:50:05;;;;;;;38.03;15.82;;;-5.40;99.90;;;;;;5031975;28;20053;-83
2021/12/22 02:52:39;;;;;;;29.35;15.43;;;-5.50;99.90;;;;;;5032678;28;20053;-82
2021/12/22 02:55:05;;;;;;;33.65;17.40;;;-5.50;99.90;;;;;;5032044;28;20057;-83
2021/12/22 02:57:41;;;;;;;;;;;-5.60;99.90;;;;;;5031568;28;20099;-82
2021/12/22 03:06:14;;;;;;;33.50;14.93;;;-4.80;99.90;;;;;;5036329;28;20179;-83
2021/12/22 03:08:40;;;;;;;38.58;16.83;;;-5.90;99.90;;;;;;5034485;28;20072;-83
2021/12/22 03:11:05;;;;;;;32.17;14.73;;;-5.90;99.90;;;;;;5032765;28;20128;-82
2021/12/22 03:13:31;;;;;;;36.72;15.48;;;-5.90;99.90;;;;;;5032450;28;20126;-82
2021/12/22 03:15:57;;;;;;;;;;;-5.90;99.90;;;;;;5034664;28;20065;-82
2021/12/22 03:18:23;;;;;;;35.13;15.27;;;-6.00;99.90;;;;;;5034563;28;19924;-83
2021/12/22 03:20:57;;;;;;;38.30;15.52;;;-5.90;99.90;;;;;;5036645;28;20049;-83
2021/12/22 03:23:23;;;;;;;42.88;18.63;;;-5.90;99.90;;;;;;5037418;28;20060;-83
2021/12/22 03:25:49;;;;;;;37.95;16.65;;;-5.80;99.90;;;;;;5038043;28;20045;-83
2021/12/22 03:28:14;;;;;;;37.72;16.55;;;-5.70;99.90;;;;;;5041317;28;20616;-83
2021/12/22 03:30:40;;;;;;;32.63;16.98;;;-5.70;99.90;;;;;;5040699;28;20123;-84
2021/12/22 03:33:06;;;;;;;34.60;16.45;;;-5.70;99.90;;;;;;5044034;28;20068;-83
2021/12/22 03:35:34;;;;;;;33.30;16.95;;;-5.60;99.90;;;;;;5043356;28;20547;-83
2021/12/22 03:38:01;;;;;;;42.80;17.48;;;-5.70;99.90;;;;;;5048395;28;20067;-83
2021/12/22 03:40:27;;;;;;;29.98;14.43;;;-5.60;99.90;;;;;;5048381;28;20067;-84
2021/12/22 03:42:54;;;;;;;33.00;16.17;;;-5.60;99.90;;;;;;5049728;28;20046;-84
2021/12/22 03:45:20;;;;;;;42.50;19.27;;;-5.60;99.90;;;;;;5048605;28;20053;-84
2021/12/22 03:47:46;;;;;;;35.03;16.77;;;-5.60;99.90;;;;;;5048562;28;20597;-84
2021/12/22 03:50:14;;;;;;;36.33;17.70;;;-5.60;99.90;;;;;;5032433;28;20057;-84
2021/12/22 03:52:39;;;;;;;34.75;16.33;;;-5.50;99.90;;;;;;5049573;28;20034;-84
2021/12/22 03:55:07;;;;;;;38.80;17.35;;;-5.50;99.90;;;;;;5048609;28;20069;-83
2021/12/22 03:57:33;;;;;;;40.78;17.08;;;-5.50;99.90;;;;;;5047702;28;20045;-83
2021/12/22 03:59:59;;;;;;;37.65;16.88;;;-5.50;99.90;;;;;;5046396;28;20059;-84
2021/12/22 04:02:28;;;;;;;42.85;18.55;;;-4.90;99.90;;;;;;5044909;28;20140;-83
2021/12/22 04:04:53;;;;;;;40.92;17.80;;;-5.30;99.90;;;;;;5045756;28;20068;-83
2021/12/22 04:07:19;;;;;;;34.28;17.20;;;-5.10;99.90;;;;;;5043121;28;20505;-84
2021/12/22 04:09:46;;;;;;;37.53;16.83;;;-4.90;99.90;;;;;;5042056;28;20043;-84
2021/12/22 04:12:12;;;;;;;34.40;16.42;;;-4.90;99.90;;;;;;5040261;28;20049;-84
2021/12/22 04:14:38;;;;;;;38.47;18.75;;;-4.90;99.90;;;;;;5040877;28;20045;-83
2021/12/22 04:17:03;;;;;;;44.05;17.98;;;-4.80;99.90;;;;;;5038508;28;20056;-84
2021/12/22 04:19:29;;;;;;;40.75;16.75;;;-4.80;99.90;;;;;;5033234;28;20084;-83
2021/12/22 04:21:55;;;;;;;31.80;14.88;;;-4.80;99.90;;;;;;5034602;28;20050;-83
2021/12/22 04:24:22;;;;;;;34.60;17.90;;;-4.60;99.90;;;;;;5031342;28;20390;-83
2021/12/22 04:26:48;;;;;;;39.17;18.00;;;-4.60;99.90;;;;;;5031777;28;20509;-83
2021/12/22 04:29:14;;;;;;;;;;;-4.70;99.90;;;;;;5032908;28;20050;-83
2021/12/22 04:31:40;;;;;;;33.03;15.90;;;-4.70;99.90;;;;;;5032043;28;19925;-83
2021/12/22 04:34:07;;;;;;;44.30;18.23;;;-4.70;99.90;;;;;;5032075;28;20627;-83
2021/12/22 04:36:34;;;;;;;44.53;17.35;;;-4.60;99.90;;;;;;5031408;28;20050;-83
2021/12/22 04:39:00;;;;;;;38.78;17.50;;;-4.70;99.90;;;;;;5029692;28;20091;-84
2021/12/22 04:41:26;;;;;;;36.72;16.73;;;-4.70;99.90;;;;;;5031504;28;20568;-83
2021/12/22 04:43:53;;;;;;;33.65;16.38;;;-4.80;99.90;;;;;;5014966;28;20056;-83
2021/12/22 04:46:20;;;;;;;41.08;16.92;;;-4.80;99.90;;;;;;5031027;28;20049;-83
2021/12/22 04:48:46;;;;;;;36.60;17.13;;;-4.80;99.90;;;;;;5032532;28;20037;-82
2021/12/22 04:51:24;;;;;;;44.90;18.88;;;-4.90;99.90;;;;;;5033113;28;20045;-82
2021/12/22 04:54:42;;;;;;;36.75;17.27;;;-4.90;99.90;;;;;;5029860;28;20095;-82
2021/12/22 04:56:39;;;;;;;33.65;16.80;;;-4.90;99.90;;;;;;5034287;28;20136;-83
2021/12/22 04:59:05;;;;;;;34.28;16.70;;;-4.90;99.90;;;;;;5034216;28;20104;-83
2021/12/22 05:01:31;;;;;;;42.47;17.50;;;-4.90;99.90;;;;;;5032862;28;20109;-84
2021/12/22 05:03:56;;;;;;;37.80;17.08;;;-4.90;99.90;;;;;;5031648;28;20053;-83
2021/12/22 05:06:23;;;;;;;34.13;17.67;;;-4.90;99.90;;;;;;5032282;28;20045;-84
2021/12/22 05:08:50;;;;;;;38.40;16.58;;;-5.00;99.90;;;;;;5031035;28;20038;-82
2021/12/22 05:11:15;;;;;;;40.80;18.38;;;-5.00;99.90;;;;;;5032830;28;20523;-82
2021/12/22 05:13:41;;;;;;;41.45;18.45;;;-5.00;99.90;;;;;;5032120;28;20049;-82
2021/12/22 05:16:06;;;;;;;40.10;18.35;;;-5.00;99.90;;;;;;5032490;28;20075;-82
2021/12/22 05:21:18;;;;;;;37.58;18.25;;;-5.00;99.90;;;;;;5031629;28;20424;-82
2021/12/22 05:23:43;;;;;;;33.00;15.07;;;-5.10;99.90;;;;;;5032230;28;20068;-82
2021/12/22 05:26:09;;;;;;;40.92;16.90;;;-5.10;99.90;;;;;;5031806;28;20049;-84
2021/12/22 05:28:34;;;;;;;39.40;16.88;;;-5.10;99.90;;;;;;5029439;28;20580;-82
2021/12/22 05:31:00;;;;;;;34.83;16.23;;;-5.00;99.90;;;;;;5029256;28;20124;-83
2021/12/22 05:33:26;;;;;;;42.60;17.92;;;-5.00;99.90;;;;;;5032246;28;20045;-83
2021/12/22 05:35:51;;;;;;;37.80;18.75;;;-4.40;99.90;;;;;;5030399;28;20060;-82
2021/12/22 05:38:17;;;;;;;46.30;18.75;;;-5.10;99.90;;;;;;5032084;28;20913;-83
2021/12/22 05:40:43;;;;;;;31.63;16.67;;;-5.10;99.90;;;;;;5032795;28;20045;-84
2021/12/22 05:43:09;;;;;;;45.28;19.67;;;-5.10;99.90;;;;;;5031326;28;20045;-81
2021/12/22 05:45:35;;;;;;;;;;;-5.20;99.90;;;;;;5032967;28;20109;-81
2021/12/22 05:48:00;;;;;;;48.75;18.05;;;-5.10;99.90;;;;;;5033897;28;19964;-83
2021/12/22 05:50:26;;;;;;;31.27;16.00;;;-5.10;99.90;;;;;;5033446;28;20475;-81
2021/12/22 05:52:51;;;;;;;38.90;16.20;;;-5.00;99.90;;;;;;5033393;28;20056;-81
2021/12/22 05:55:17;;;;;;;46.72;18.55;;;-5.00;99.90;;;;;;5030277;28;20045;-80
2021/12/22 05:57:43;;;;;;;42.92;17.13;;;-4.70;99.90;;;;;;5028266;28;20122;-81
2021/12/22 06:00:09;;;;;;;36.97;15.63;;;-5.00;99.90;;;;;;5025830;28;20099;-81
2021/12/22 06:02:35;;;;;;;33.92;14.52;;;-5.00;99.90;;;;;;5028193;28;20049;-80
2021/12/22 06:05:00;;;;;;;37.33;19.85;;;-5.00;99.90;;;;;;5028824;28;20045;-80
2021/12/22 06:07:32;;;;;;;47.05;18.45;;;-5.00;99.90;;;;;;5032405;28;20048;-82
2021/12/22 06:09:58;;;;;;;36.10;16.33;;;-5.10;99.90;;;;;;5032466;28;20405;-83
2021/12/22 06:12:23;;;;;;;43.35;18.48;;;-5.10;99.90;;;;;;5032062;28;20049;-83
2021/12/22 06:14:49;;;;;;;34.50;17.70;;;-5.10;99.90;;;;;;5030581;28;20081;-81
2021/12/22 06:17:15;;;;;;;39.38;15.70;;;-5.10;99.90;;;;;;5029509;28;20045;-81
2021/12/22 06:19:41;;;;;;;54.13;18.50;;;-5.10;99.90;;;;;;5028978;28;20476;-83
2021/12/22 06:22:06;;;;;;;38.53;16.65;;;-5.10;99.90;;;;;;5029027;28;20051;-82
2021/12/22 06:24:32;;;;;;;36.95;18.20;;;-5.20;99.90;;;;;;5028998;28;20045;-81
2021/12/22 06:26:58;;;;;;;39.33;16.65;;;-5.20;99.90;;;;;;5025065;28;20050;-81
2021/12/22 06:29:24;;;;;;;;;;;-5.20;99.90;;;;;;5025107;28;20417;-81
2021/12/22 06:31:50;;;;;;;36.90;16.55;;;-5.20;99.90;;;;;;5025445;28;19924;-81
2021/12/22 06:34:16;;;;;;;35.95;18.02;;;-5.20;99.90;;;;;;5023123;28;20527;-80
2021/12/22 06:36:42;;;;;;;48.08;17.63;;;-5.10;99.90;;;;;;5024577;28;20046;-82
2021/12/22 06:39:08;;;;;;;36.05;16.30;;;-5.20;99.90;;;;;;5024058;28;20057;-81
2021/12/22 06:41:34;;;;;;;35.50;15.82;;;-5.10;99.90;;;;;;5024280;28;20165;-80
2021/12/22 06:44:00;;;;;;;42.53;17.70;;;-5.10;99.90;;;;;;5022650;28;20088;-82
2021/12/22 06:46:26;;;;;;;38.30;17.42;;;-5.10;99.90;;;;;;5024861;28;20469;-82
2021/12/22 06:48:51;;;;;;;37.20;17.50;;;-5.10;99.90;;;;;;5024274;28;20153;-80
2021/12/22 06:51:17;;;;;;;37.85;18.20;;;-5.20;99.90;;;;;;5021922;28;20045;-80
2021/12/22 06:53:43;;;;;;;37.78;16.63;;;-5.20;99.90;;;;;;5023137;28;20144;-82
2021/12/22 06:56:09;;;;;;;41.50;18.85;;;-5.20;99.90;;;;;;5021530;28;20041;-82
2021/12/22 06:58:34;;;;;;;38.55;17.40;;;-5.20;99.90;;;;;;5022765;28;20045;-83
2021/12/22 07:01:00;;;;;;;41.33;16.70;;;-5.20;99.90;;;;;;5022827;28;20673;-81
2021/12/22 07:03:26;;;;;;;32.72;14.68;;;-5.20;99.90;;;;;;5021264;28;20089;-80
2021/12/22 07:05:52;;;;;;;;;;;-5.20;99.90;;;;;;5022867;28;20050;-79
2021/12/22 07:08:18;;;;;;;43.58;17.38;;;-5.20;99.90;;;;;;5022925;28;19948;-80
2021/12/22 07:10:43;;;;;;;42.17;16.42;;;-5.20;99.90;;;;;;5020719;28;20053;-80
2021/12/22 07:13:10;;;;;;;38.83;15.63;;;-5.30;99.90;;;;;;5022775;28;20076;-80
2021/12/22 07:15:36;;;;;;;41.95;16.48;;;-5.30;99.90;;;;;;5022843;28;20049;-80
2021/12/22 07:18:02;;;;;;;34.65;13.27;;;-5.30;99.90;;;;;;5022425;28;20501;-80
2021/12/22 07:20:28;;;;;;;44.38;18.63;;;-5.30;99.90;;;;;;5022694;28;20061;-79
2021/12/22 07:22:54;;;;;;;46.20;16.77;;;-5.30;99.90;;;;;;5020476;28;20054;-80
2021/12/22 07:25:23;;;;;;;42.47;16.42;;;-5.20;99.90;;;;;;5022307;28;20077;-80
2021/12/22 07:27:49;;;;;;;45.08;16.48;;;-5.30;99.90;;;;;;5020991;28;20115;-78
2021/12/22 07:30:15;;;;;;;39.90;16.25;;;-5.20;99.90;;;;;;5022269;28;20527;-81
2021/12/22 07:32:41;;;;;;;47.85;16.58;;;-5.30;99.90;;;;;;5022548;28;20488;-80
2021/12/22 07:35:09;;;;;;;37.00;16.15;;;-5.20;99.90;;;;;;5022503;28;20056;-79
2021/12/22 07:37:41;;;;;;;38.65;17.10;;;-5.20;99.90;;;;;;5022504;28;20045;-79
2021/12/22 07:40:19;;;;;;;32.45;15.18;;;-5.20;99.90;;;;;;5004812;28;20099;-79
2021/12/22 07:42:45;;;;;;;42.22;16.90;;;-5.20;99.90;;;;;;5022866;28;20080;-79
2021/12/22 07:45:11;;;;;;;41.33;17.65;;;-5.20;99.90;;;;;;5023161;28;20081;-79
2021/12/22 07:47:37;;;;;;;39.58;15.70;;;-5.20;99.90;;;;;;5021472;28;20554;-78
2021/12/22 07:50:04;;;;;;;35.15;15.30;;;-5.20;99.90;;;;;;5022605;28;20057;-79
2021/12/22 07:52:30;;;;;;;39.72;16.15;;;-5.20;99.90;;;;;;5023282;28;20053;-79
2021/12/22 07:54:56;;;;;;;39.47;16.90;;;-5.20;99.90;;;;;;5023390;28;20056;-78
2021/12/22 07:57:22;;;;;;;39.70;15.60;;;-5.20;99.90;;;;;;5023803;28;20637;-78
2021/12/22 07:59:48;;;;;;;47.17;17.58;;;-5.20;99.90;;;;;;5023799;28;20073;-80
2021/12/22 08:02:14;;;;;;;36.85;15.43;;;-5.20;99.90;;;;;;5022557;28;20075;-79
2021/12/22 08:04:40;;;;;;;42.55;17.80;;;-5.10;99.90;;;;;;5019161;28;20049;-79
2021/12/22 08:07:06;;;;;;;39.67;17.85;;;-4.50;99.90;;;;;;5022157;28;20069;-78
2021/12/22 08:09:32;;;;;;;32.25;15.43;;;-5.10;99.90;;;;;;5033784;28;20404;-79
2021/12/22 08:12:04;;;;;;;;;;;-5.00;99.90;;;;;;5043555;28;20059;-79
2021/12/22 08:14:38;;;;;;;37.85;15.68;;;-5.00;99.90;;;;;;5042506;28;19925;-79
2021/12/22 08:17:05;;;;;;;40.92;15.93;;;-4.90;99.90;;;;;;5042991;28;20040;-79
2021/12/22 08:19:30;;;;;;;41.22;17.40;;;-4.90;99.90;;;;;;5041410;28;20071;-78
2021/12/22 08:21:56;;;;;;;40.78;16.80;;;-4.80;99.90;;;;;;5042806;28;20044;-80
2021/12/22 08:24:23;;;;;;;42.05;16.67;;;-4.70;99.90;;;;;;5046308;28;20638;-81
2021/12/22 08:26:50;;;;;;;43.67;17.92;;;-4.60;99.90;;;;;;5046594;28;20120;-80
2021/12/22 08:29:16;;;;;;;44.78;17.92;;;-4.60;99.90;;;;;;5045992;28;20041;-78
2021/12/22 08:31:41;;;;;;;51.25;19.77;;;-4.50;99.90;;;;;;5045132;28;20097;-79
2021/12/22 08:34:09;;;;;;;37.10;17.13;;;-4.50;99.90;;;;;;5047720;28;20033;-77
2021/12/22 08:39:18;;;;;;;43.38;19.48;;;-4.30;99.90;;;;;;5047305;28;20041;-79
2021/12/22 08:41:47;;;;;;;46.60;18.73;;;-4.30;99.90;;;;;;5050011;28;20484;-79
2021/12/22 08:44:18;;;;;;;47.55;19.02;;;-4.20;99.90;;;;;;5030716;28;20131;-79
2021/12/22 08:46:48;;;;;;;41.63;17.80;;;-4.10;99.90;;;;;;5048251;28;20406;-77
2021/12/22 08:49:14;;;;;;;47.65;19.50;;;-4.00;99.90;;;;;;5047336;28;20045;-79
2021/12/22 08:51:40;;;;;;;55.20;21.33;;;-3.90;99.90;;;;;;5048996;28;20579;-77
2021/12/22 08:54:06;;;;;;;55.58;22.67;;;-3.70;99.90;;;;;;5044883;28;20049;-79
2021/12/22 08:56:32;;;;;;;;;;;-3.70;99.90;;;;;;5051651;28;20127;-78
2021/12/22 08:58:59;;;;;;;42.78;17.83;;;-3.60;99.90;;;;;;5051988;28;19940;-79
2021/12/22 09:01:25;;;;;;;;;;;-3.50;99.90;;;;;;5052453;28;20040;-80
2021/12/22 09:03:52;;;;;;;41.80;15.80;;;-3.50;99.90;;;;;;5051834;28;20626;-79
2021/12/22 09:06:17;;;;;;;50.03;18.73;;;-3.50;99.90;;;;;;5053523;28;20114;-78
2021/12/22 09:08:44;;;;;;;51.63;18.15;;;-3.50;99.90;;;;;;5050956;28;20492;-79
2021/12/22 09:11:11;;;;;;;52.72;21.17;;;-3.40;99.90;;;;;;5050815;28;20045;-79
2021/12/22 09:13:38;;;;;;;48.22;20.10;;;-3.30;99.90;;;;;;5049724;28;20053;-78
2021/12/22 09:16:05;;;;;;;50.10;20.48;;;-3.30;99.90;;;;;;5051484;28;20074;-79
2021/12/22 09:18:33;;;;;;;52.67;19.92;;;-3.20;99.90;;;;;;5051492;28;20076;-77
2021/12/22 09:20:59;;;;;;;50.13;19.95;;;-3.20;99.90;;;;;;5051515;28;20059;-76
2021/12/22 09:23:25;;;;;;;37.17;16.77;;;-3.30;99.90;;;;;;5052020;28;20564;-76
2021/12/22 09:25:50;;;;;;;56.13;19.55;;;-3.20;99.90;;;;;;5051392;28;20124;-77
2021/12/22 09:28:16;;;;;;;47.15;15.82;;;-3.20;99.90;;;;;;5051636;28;20037;-79
2021/12/22 09:30:44;;;;;;;52.08;18.45;;;-3.20;99.90;;;;;;5052069;28;20494;-77
2021/12/22 09:33:12;;;;;;;48.05;17.52;;;-3.10;99.90;;;;;;5051601;28;20068;-76
2021/12/22 09:35:38;;;;;;;50.78;19.77;;;-3.10;99.90;;;;;;5051908;28;20040;-76
2021/12/22 09:38:06;;;;;;;51.42;19.48;;;-3.00;99.90;;;;;;5052669;28;20053;-80
2021/12/22 09:40:32;;;;;;;46.90;20.90;;;-3.00;99.90;;;;;;5051138;28;20443;-76
2021/12/22 09:42:58;;;;;;;42.80;16.48;;;-2.90;99.90;;;;;;5048389;28;20102;-76
2021/12/22 09:45:25;;;;;;;45.35;19.58;;;-2.80;99.90;;;;;;5052801;28;20052;-79
2021/12/22 09:50:45;;;;;;;33.17;16.20;;;-2.60;99.90;;;;;;5051427;28;20040;-77
2021/12/22 09:53:13;;;;;;;48.88;20.30;;;-2.40;99.90;;;;;;5051467;28;20051;-77
2021/12/22 09:55:39;;;;;;;47.45;19.30;;;-2.30;99.90;;;;;;5044351;28;20518;-78
2021/12/22 09:58:05;;;;;;;49.92;19.65;;;-2.30;99.90;;;;;;5048858;28;20052;-78
2021/12/22 10:00:34;;;;;;;51.30;20.52;;;-2.30;99.90;;;;;;5052033;28;20123;-78
2021/12/22 10:03:01;;;;;;;48.97;20.60;;;-2.20;99.90;;;;;;5047266;28;20523;-78
2021/12/22 10:05:26;;;;;;;;;;;-2.20;99.90;;;;;;5047325;28;20527;-76
2021/12/22 10:08:15;;;;;;;39.72;18.98;;;-2.20;99.90;;;;;;5051637;28;19959;-79
2021/12/22 10:10:45;;;;;;;44.38;19.27;;;-2.10;99.90;;;;;;5049873;28;20045;-78
2021/12/22 10:13:15;;;;;;;50.53;20.92;;;-2.10;99.90;;;;;;5050015;28;20072;-77
2021/12/22 10:15:41;;;;;;;47.85;19.50;;;-2.00;99.90;;;;;;5041357;28;20106;-76
2021/12/22 10:18:10;;;;;;;;;;;-2.00;99.90;;;;;;5051590;28;20040;-76
2021/12/22 10:20:37;;;;;;;49.05;17.52;;;-2.00;99.90;;;;;;5053052;28;19924;-77
2021/12/22 10:23:30;;;;;;;41.80;19.40;;;-1.90;99.90;;;;;;5039334;28;20073;-77
2021/12/22 10:26:05;;;;;;;43.78;19.33;;;-1.10;99.90;;;;;;5032928;28;20061;-76
2021/12/22 10:28:54;;;;;;;45.22;19.60;;;-1.80;99.90;;;;;;5031272;28;20049;-76
2021/12/22 10:31:25;;;;;;;34.28;17.10;;;-1.80;99.90;;;;;;5032361;28;20058;-76
2021/12/22 10:33:54;;;;;;;36.22;17.08;;;-1.70;99.90;;;;;;5034120;28;20045;-76
2021/12/22 10:36:21;;;;;;;44.83;19.52;;;-1.70;99.90;;;;;;5032718;28;20076;-78
2021/12/22 10:39:00;;;;;;;48.92;21.23;;;-1.60;99.90;;;;;;5032696;28;20440;-77
2021/12/22 10:41:30;;;;;;;46.60;17.73;;;-1.60;99.90;;;;;;5033555;28;20060;-76
2021/12/22 10:43:58;;;;;;;51.67;19.75;;;-1.50;99.90;;;;;;5033298;28;20317;-76
2021/12/22 10:46:31;;;;;;;52.17;20.38;;;-1.40;99.90;;;;;;5032864;28;20061;-77
2021/12/22 10:49:18;;;;;;;47.80;18.85;;;-1.40;99.90;;;;;;5034275;28;20104;-77
2021/12/22 10:51:56;;;;;;;47.28;19.95;;;-1.30;99.90;;;;;;5016376;28;20401;-77
2021/12/22 10:54:37;;;;;;;41.70;18.33;;;-1.30;99.90;;;;;;5034758;28;20041;-78
2021/12/22 10:57:10;;;;;;;35.58;17.15;;;-1.20;99.90;;;;;;5035718;28;20056;-75
2021/12/22 10:59:49;;;;;;;43.65;19.15;;;-1.20;99.90;;;;;;5035570;28;20049;-76
2021/12/22 11:02:26;;;;;;;41.03;18.75;;;-1.20;99.90;;;;;;5034043;28;20473;-76
2021/12/22 11:04:54;;;;;;;36.90;18.88;;;-1.30;99.90;;;;;;5034745;28;20052;-78
2021/12/22 11:07:27;;;;;;;41.92;21.05;;;-1.20;99.90;;;;;;5031933;28;20096;-77
2021/12/22 11:09:54;;;;;;;42.85;18.67;;;-1.30;99.90;;;;;;5032969;28;20109;-76
2021/12/22 11:12:39;;;;;;;41.30;18.27;;;-1.30;99.90;;;;;;5034597;28;20099;-76
2021/12/22 11:15:22;;;;;;;51.90;21.63;;;-1.20;99.90;;;;;;5032942;28;20057;-76
2021/12/22 11:17:48;;;;;;;38.55;18.70;;;-1.10;99.90;;;;;;5034277;28;20041;-76
2021/12/22 11:20:13;;;;;;;38.22;17.73;;;-1.20;99.90;;;;;;5032997;28;20091;-77
2021/12/22 11:23:00;;;;;;;38.92;18.98;;;-1.20;99.90;;;;;;5034005;28;20439;-78
2021/12/22 11:25:27;;;;;;;45.60;19.67;;;-1.20;99.90;;;;;;5032675;28;20046;-76
2021/12/22 11:27:55;;;;;;;42.15;18.48;;;-1.20;99.90;;;;;;5031020;28;20053;-77
2021/12/22 11:30:23;;;;;;;40.80;19.08;;;-1.10;99.90;;;;;;5031599;28;20246;-76
2021/12/22 11:32:49;;;;;;;39.78;17.05;;;-1.10;99.90;;;;;;5032553;28;20084;-78
2021/12/22 11:35:16;;;;;;;50.22;20.92;;;-1.10;99.90;;;;;;5031157;28;20080;-76
2021/12/22 11:37:42;;;;;;;37.60;17.65;;;-1.10;99.90;;;;;;5032507;28;20042;-76
2021/12/22 11:40:11;;;;;;;50.75;17.88;;;-1.00;99.90;;;;;;5032557;28;20053;-77
2021/12/22 11:42:39;;;;;;;35.40;16.63;;;-1.00;99.90;;;;;;5033797;28;20529;-76
2021/12/22 11:45:10;;;;;;;33.72;17.98;;;-1.00;99.90;;;;;;5033190;28;20117;-76
2021/12/22 11:47:38;;;;;;;39.00;17.60;;;-1.00;99.90;;;;;;5034642;28;20087;-78
2021/12/22 11:50:05;;;;;;;43.60;18.50;;;-1.00;99.90;;;;;;5033078;28;20057;-76
2021/12/22 11:52:34;;;;;;;38.28;19.25;;;-0.90;99.90;;;;;;5032307;28;20382;-76
2021/12/22 11:55:36;;;;;;;40.60;18.77;;;-0.80;99.90;;;;;;5033462;28;20041;-77
2021/12/22 11:58:32;;;;;;;42.10;16.83;;;-0.80;99.90;;;;;;5038491;28;20055;-76
2021/12/22 12:00:59;;;;;;;41.90;18.63;;;-0.80;99.90;;;;;;5035830;28;20107;-77
2021/12/22 12:03:36;;;;;;;36.25;17.65;;;-0.90;99.90;;;;;;5035854;28;20053;-78
2021/12/22 12:06:16;;;;;;;35.97;16.63;;;-0.90;99.90;;;;;;5036186;28;20507;-76
2021/12/22 12:08:53;;;;;;;36.22;17.02;;;-0.80;99.90;;;;;;5037961;28;20103;-78
2021/12/22 12:12:08;;;;;;;38.28;19.27;;;-0.80;99.90;;;;;;5036720;28;20068;-78
2021/12/22 12:14:59;;;;;;;41.33;18.15;;;-0.80;99.90;;;;;;5037662;28;20237;-76
2021/12/22 12:23:33;;;;;;;36.17;16.73;;;-0.70;99.90;;;;;;5057156;28;20056;-77
2021/12/22 12:26:04;;;;;;;31.42;14.90;;;-0.80;99.90;;;;;;5051368;28;20045;-79
2021/12/22 12:28:43;;;;;;;35.28;15.10;;;-0.80;99.90;;;;;;5059186;28;20056;-78
2021/12/22 12:31:08;;;;;;;40.92;18.77;;;-0.80;99.90;;;;;;5055478;28;20072;-79
2021/12/22 12:33:43;;;;;;;32.08;15.82;;;-0.90;99.90;;;;;;5056211;28;20057;-77
2021/12/22 12:36:12;;;;;;;44.70;17.50;;;-0.90;99.90;;;;;;5056614;28;20052;-79
2021/12/22 12:38:40;;;;;;;31.00;13.32;;;-0.80;99.90;;;;;;5055601;28;20052;-79
2021/12/22 12:41:11;;;;;;;34.55;17.13;;;-0.80;99.90;;;;;;5052438;28;20159;-78
2021/12/22 12:43:47;;;;;;;27.33;14.13;;;-0.80;99.90;;;;;;5056184;28;20049;-78
2021/12/22 12:46:28;;;;;;;29.33;14.57;;;-0.70;99.90;;;;;;5054380;28;20099;-77
2021/12/22 12:49:20;;;;;;;29.17;13.25;;;-0.60;99.90;;;;;;5050583;28;20088;-77
2021/12/22 12:51:47;;;;;;;30.50;14.45;;;-0.70;99.90;;;;;;5048276;28;20114;-77
2021/12/22 12:54:20;;;;;;;38.25;15.40;;;-0.60;99.90;;;;;;5053768;28;20068;-77
2021/12/22 12:56:49;;;;;;;34.63;15.93;;;-0.50;99.90;;;;;;5051773;28;20053;-77
2021/12/22 12:59:17;;;;;;;30.38;12.68;;;-0.50;99.90;;;;;;5052831;28;20092;-80
2021/12/22 13:01:52;;;;;;;31.40;15.30;;;-0.50;99.90;;;;;;5036299;28;20053;-78